KATY/ATY METAR and TAF weather

Enter ICAO airport designator
Station Type Date Time Source
KATY METAR 2022/01/23 11:53 UTC NOAA

KATY 231153Z AUTO 00000KT 10SM CLR M23/M26 A3011 RMK AO2 SLP239 70004 T12331256 11194 21244 50001


Station Type Date Time Source
KATY Decoded METAR 2022/01/23 11:53 UTC NOAA

WATERTOWN MUNICIPAL AIRPORT, SD, United States (KATY) 44-54N 097-09W 532M
Jan 23, 2022 - 06:53 AM EST / 2022.01.23 1153 UTC
Wind: Calm:0
Visibility: 10 mile(s):0
Sky conditions: clear
Temperature: -9.9 F (-23.3 C)
Dew Point: -14.1 F (-25.6 C)
Relative Humidity: 81%
Pressure (altimeter): 30.11 in. Hg (1019 hPa)
Pressure tendency: 0.00 inches (0.1 hPa) higher than three hours ago
ob: KATY 231153Z AUTO 00000KT 10SM CLR M23/M26 A3011 RMK AO2 SLP239 70004 T12331256 11194 21244 50001
cycle: 12

Station Type Date Time Source
KATY TAF 2022/01/23 12:22 UTC NOAA

TAF KATY 231120Z 2312/2412 00000KT P6SM BKN200
FM231800 20009KT 1SM -SN BR OVC017
FM232100 20012G19KT P6SM OVC021
FM240800 30015KT 2SM -SN BLSN BR OVC006

Example: see airport list